Time;durP1;ratioP1;P1;durP2;ratioP2;P2;SDS_P1;SDS_P2;PMS_P1;PMS_P2;Temp;Humidity;BMP_temperature;BMP_pressure;BME280_temperature;BME280_humidity;BME280_pressure;Samples;Min_cycle;Max_cycle;Signal;HPM_P1;HPM_P2
2021/06/03 05:30:54;;;;;;;20.05;12.13;;;;;;;16.11;56.98;101256.93;1738551;77;26720;-56
2021/06/03 05:33:30;;;;;;;14.00;9.83;;;;;;;16.31;56.94;101260.34;1739804;79;27320;-56
2021/06/03 05:36:00;;;;;;;13.25;10.40;;;;;;;16.51;56.61;101257.47;1743134;80;25917;-56
2021/06/03 05:38:28;;;;;;;15.03;9.60;;;;;;;16.71;55.61;101261.43;1743826;80;26001;-56
2021/06/03 05:40:56;;;;;;;14.85;9.93;;;;;;;16.89;55.57;101261.39;1736989;80;26210;-57
2021/06/03 05:43:26;;;;;;;15.43;9.28;;;;;;;17.15;55.02;101272.21;1731475;80;25465;-55
2021/06/03 05:46:08;;;;;;;25.08;17.00;;;;;;;17.38;54.63;101265.08;1745763;79;27377;-56
2021/06/03 05:48:36;;;;;;;15.60;9.60;;;;;;;17.65;54.21;101272.77;1698347;82;25433;-57
2021/06/03 05:51:06;;;;;;;13.13;9.30;;;;;;;17.96;53.99;101269.42;1683619;83;26696;-56
2021/06/03 05:53:36;;;;;;;15.32;9.35;;;;;;;18.28;53.67;101269.20;1742346;80;26346;-56
2021/06/03 05:56:05;;;;;;;15.45;9.45;;;;;;;18.53;52.88;101267.92;1754139;80;26209;-56
2021/06/03 05:58:44;;;;;;;11.73;8.65;;;;;;;18.86;52.72;101277.45;1754174;79;27418;-56
2021/06/03 06:01:15;;;;;;;15.08;8.95;;;;;;;19.17;51.99;101269.23;1698316;82;25581;-56
2021/06/03 06:03:56;;;;;;;14.95;9.50;;;;;;;19.51;51.89;101269.88;1642216;84;25882;-56
2021/06/03 06:06:24;;;;;;;12.75;8.63;;;;;;;19.81;51.33;101273.73;1642358;84;26321;-55
2021/06/03 06:08:55;;;;;;;14.78;10.00;;;;;;;20.14;51.08;101269.36;1640545;84;26678;-56
2021/06/03 06:11:27;;;;;;;15.15;9.30;;;;;;;20.50;50.69;101271.13;1649032;84;29071;-56
2021/06/03 06:13:55;;;;;;;14.58;8.83;;;;;;;20.82;50.00;101268.98;1677090;83;27086;-57
2021/06/03 06:16:22;;;;;;;15.15;8.73;;;;;;;21.14;49.57;101267.59;1684667;82;26300;-56
2021/06/03 06:18:50;;;;;;;15.58;8.08;;;;;;;21.44;48.38;101278.89;1688477;83;26058;-56
2021/06/03 06:21:21;;;;;;;12.23;7.47;;;;;;;21.72;47.79;101279.31;1698153;81;25562;-56
2021/06/03 06:23:49;;;;;;;10.23;7.67;;;;;;;22.00;47.30;101276.36;1695361;83;27507;-56
2021/06/03 06:26:18;;;;;;;13.30;8.05;;;;;;;22.31;46.38;101276.77;1691973;82;26311;-56
2021/06/03 06:28:47;;;;;;;10.43;7.42;;;;;;;22.56;45.78;101278.61;1684489;83;26852;-56
2021/06/03 06:31:15;;;;;;;10.75;6.97;;;;;;;22.83;45.71;101274.53;1694867;83;34884;-56
2021/06/03 06:33:45;;;;;;;9.70;7.15;;;;;;;23.19;45.44;101292.23;1665636;83;25589;-56
2021/06/03 06:36:12;;;;;;;12.28;7.72;;;;;;;23.37;44.66;101278.13;1684742;83;27336;-57
2021/06/03 06:38:42;;;;;;;11.75;6.92;;;;;;;23.65;43.98;101282.43;1681685;83;26012;-56
2021/06/03 06:41:12;;;;;;;11.00;7.87;;;;;;;23.85;43.65;101277.02;1718303;79;26111;-56
2021/06/03 06:43:43;;;;;;;13.85;6.95;;;;;;;24.07;43.22;101284.16;1770449;79;25894;-57
2021/06/03 06:46:13;;;;;;;13.72;7.85;;;;;;;24.27;42.86;101280.63;1699564;82;25616;-57
2021/06/03 06:48:40;;;;;;;11.00;6.30;;;;;;;24.43;41.91;101282.58;1715179;82;27788;-56
2021/06/03 06:51:08;;;;;;;14.20;7.17;;;;;;;24.57;41.58;101279.78;1716590;81;26277;-57
2021/06/03 06:53:39;;;;;;;11.12;6.17;;;;;;;24.80;41.54;101283.71;1705086;80;25820;-57
2021/06/03 06:56:06;;;;;;;10.00;6.10;;;;;;;25.02;40.67;101279.14;1759049;79;25937;-57
2021/06/03 06:58:36;;;;;;;8.18;6.45;;;;;;;25.26;40.36;101281.11;1768520;79;25388;-57
2021/06/03 07:03:51;;;;;;;8.90;6.35;;;;;;;25.62;39.40;101279.31;1680578;83;25548;-57
2021/06/03 07:06:21;;;;;;;7.72;6.35;;;;;;;25.89;38.95;101281.20;1699395;82;26375;-57
2021/06/03 07:08:49;;;;;;;7.15;5.72;;;;;;;26.16;39.01;101278.77;1693892;82;25995;-57
2021/06/03 07:11:17;;;;;;;11.38;6.20;;;;;;;26.42;38.23;101283.94;1695540;83;25705;-56
2021/06/03 07:13:44;;;;;;;12.15;5.90;;;;;;;26.63;37.28;101285.20;1699867;83;28918;-56
2021/06/03 07:16:12;;;;;;;9.20;5.70;;;;;;;26.73;36.96;101281.64;1670290;83;26475;-56
2021/06/03 07:18:40;;;;;;;;;;;;;;;26.88;36.89;101282.41;1687986;83;26229;-56
2021/06/03 07:21:08;;;;;;;8.55;5.95;;;;;;;27.12;36.08;101287.73;1667658;83;26408;-57
2021/06/03 07:23:35;;;;;;;14.05;6.20;;;;;;;27.29;36.03;101281.98;1669103;83;25828;-56
2021/06/03 07:26:03;;;;;;;9.60;5.92;;;;;;;27.46;35.83;101277.56;1678702;83;29098;-57
2021/06/03 07:28:35;;;;;;;7.00;5.33;;;;;;;27.71;35.43;101278.09;1675315;83;25668;-57
2021/06/03 07:31:05;;;;;;;7.83;5.20;;;;;;;27.97;35.23;101278.79;1698331;83;26715;-57
2021/06/03 07:33:33;;;;;;;7.58;5.58;;;;;;;28.25;34.61;101282.80;1700122;83;25615;-57
2021/06/03 07:36:01;;;;;;;6.60;4.60;;;;;;;28.46;33.70;101275.50;1697558;83;26269;-56
2021/06/03 07:38:29;;;;;;;10.25;4.75;;;;;;;28.63;33.23;101273.20;1685864;83;27484;-57
2021/06/03 07:40:57;;;;;;;7.72;4.60;;;;;;;28.86;33.01;101278.77;1696870;81;26141;-56
2021/06/03 07:43:25;;;;;;;8.70;4.90;;;;;;;29.08;32.36;101271.61;1710020;81;26207;-57
2021/06/03 07:45:53;;;;;;;9.20;4.90;;;;;;;29.35;31.83;101274.53;1709123;81;26148;-57
2021/06/03 07:48:21;;;;;;;8.03;4.62;;;;;;;29.56;31.99;101274.91;1704890;82;26702;-57
2021/06/03 07:50:49;;;;;;;7.97;5.08;;;;;;;29.77;31.39;101276.05;1688537;82;27613;-57
2021/06/03 07:53:17;;;;;;;5.28;3.27;;;;;;;29.92;30.92;101273.08;1682413;82;25662;-57
2021/06/03 07:55:44;;;;;;;;;;;;;;;30.06;29.72;101270.70;1713973;81;26484;-58
2021/06/03 07:58:13;;;;;;;4.70;2.37;;;;;;;30.09;27.78;101274.82;1707602;81;25953;-57
2021/06/03 08:00:42;;;;;;;;;;;;;;;30.09;27.37;101272.64;1717712;81;26234;-54
2021/06/03 08:03:11;;;;;;;7.65;3.30;;;;;;;29.99;26.78;101269.58;1696821;81;27719;-57
2021/06/03 08:05:40;;;;;;;6.85;3.30;;;;;;;30.07;27.89;101270.27;1710879;81;27187;-57
2021/06/03 08:08:16;;;;;;;5.92;3.30;;;;;;;30.28;27.82;101279.53;1703570;81;25837;-57
2021/06/03 08:10:54;;;;;;;3.75;2.60;;;;;;;30.46;27.55;101276.48;1692283;81;25969;-55
2021/06/03 08:13:28;;;;;;;3.67;2.77;;;;;;;30.64;27.05;101278.38;1717871;81;26356;-57
2021/06/03 08:15:57;;;;;;;3.62;2.20;;;;;;;30.77;26.21;101274.39;1705317;81;27453;-56
2021/06/03 08:18:27;;;;;;;3.33;2.40;;;;;;;30.87;25.93;101274.80;1710293;81;26579;-57
2021/06/03 08:20:58;;;;;;;3.52;2.45;;;;;;;31.07;25.24;101276.87;1696878;81;26669;-56
2021/06/03 08:23:29;;;;;;;4.25;2.50;;;;;;;31.30;25.14;101266.27;1702330;81;27462;-56
2021/06/03 08:25:59;;;;;;;7.03;2.90;;;;;;;31.63;24.69;101272.01;1713386;81;26603;-56
2021/06/03 08:28:28;;;;;;;3.60;1.87;;;;;;;31.70;24.38;101273.25;1676415;82;27283;-56
2021/06/03 08:30:57;;;;;;;2.50;2.20;;;;;;;31.83;23.35;101262.98;1673043;82;25765;-56
2021/06/03 08:33:26;;;;;;;4.65;2.33;;;;;;;31.93;23.11;101268.16;1687929;82;25709;-56
2021/06/03 08:35:57;;;;;;;2.62;2.33;;;;;;;31.88;23.10;101275.67;1702412;82;25625;-55
2021/06/03 08:38:24;;;;;;;2.42;1.85;;;;;;;31.61;22.56;101275.23;1698418;82;25994;-56
2021/06/03 08:41:05;;;;;;;4.25;2.40;;;;;;;31.29;21.84;101264.67;1684575;82;27627;-56
2021/06/03 08:43:37;;;;;;;5.25;2.80;;;;;;;30.77;22.05;101265.20;1685611;82;25751;-56
2021/06/03 08:46:05;;;;;;;5.58;2.47;;;;;;;30.21;22.19;101275.47;1707591;82;26672;-56
2021/06/03 08:48:32;;;;;;;3.25;2.50;;;;;;;29.83;23.00;101271.39;1709802;82;26838;-56
2021/06/03 08:51:05;;;;;;;5.12;2.50;;;;;;;29.82;23.66;101263.64;1712406;81;26365;-55
2021/06/03 08:53:33;;;;;;;6.17;2.50;;;;;;;29.87;23.59;101265.97;1729187;82;27350;-55
2021/06/03 08:56:15;;;;;;;5.85;2.87;;;;;;;29.78;24.04;101267.06;1718263;81;25854;-56
2021/06/03 08:58:46;;;;;;;3.02;2.72;;;;;;;29.90;24.23;101266.52;1731733;81;25802;-56
2021/06/03 09:01:14;;;;;;;5.40;3.00;;;;;;;30.06;24.23;101265.89;1744208;81;25833;-57
2021/06/03 09:03:41;;;;;;;2.95;2.30;;;;;;;30.53;23.88;101268.02;1742328;81;25704;-55
2021/06/03 09:06:12;;;;;;;4.33;2.58;;;;;;;31.06;23.47;101269.10;1738893;81;27010;-55
2021/06/03 09:08:41;;;;;;;3.17;2.52;;;;;;;31.42;23.27;101263.44;1694857;83;25707;-56
2021/06/03 09:11:11;;;;;;;3.75;2.50;;;;;;;31.74;23.43;101269.78;1696661;84;25730;-56
2021/06/03 09:13:43;;;;;;;2.55;2.35;;;;;;;32.00;22.89;101274.99;1692281;83;26377;-57
2021/06/03 09:16:15;;;;;;;6.85;3.00;;;;;;;31.95;22.54;101270.53;1715096;83;25711;-56
2021/06/03 09:18:46;;;;;;;4.47;2.50;;;;;;;31.92;22.55;101265.80;1726878;81;29431;-56
2021/06/03 09:21:20;;;;;;;6.28;2.90;;;;;;;32.09;22.42;101258.25;1715180;82;25729;-57
2021/06/03 09:24:00;;;;;;;3.12;2.72;;;;;;;32.08;21.99;101258.88;1726364;81;26376;-56
2021/06/03 09:26:29;;;;;;;4.85;3.00;;;;;;;32.11;22.16;101251.61;1700679;83;26171;-54
2021/06/03 09:28:59;;;;;;;5.15;2.62;;;;;;;32.41;22.40;101261.69;1682872;84;25711;-56
2021/06/03 09:31:32;;;;;;;6.05;3.02;;;;;;;32.72;22.09;101257.91;1706111;82;28051;-56
2021/06/03 09:34:16;;;;;;;4.33;2.22;;;;;;;32.98;21.67;101252.44;1731854;81;25751;-54
2021/06/03 09:36:54;;;;;;;2.42;2.22;;;;;;;32.95;21.28;101257.55;1729375;82;26155;-54
2021/06/03 09:39:34;;;;;;;5.30;2.60;;;;;;;32.78;21.52;101253.98;1729654;82;25811;-53
2021/06/03 09:42:04;;;;;;;4.35;2.35;;;;;;;32.99;21.21;101251.22;1723011;81;25934;-53
2021/06/03 09:44:41;;;;;;;5.25;2.60;;;;;;;33.27;21.06;101258.68;1720918;81;27555;-53
2021/06/03 09:47:11;;;;;;;3.22;2.52;;;;;;;33.56;20.95;101246.64;1730735;82;25492;-55
2021/06/03 09:49:45;;;;;;;3.20;2.20;;;;;;;33.84;20.75;101250.64;1726559;81;25708;-53
2021/06/03 09:52:16;;;;;;;3.15;2.27;;;;;;;33.93;19.86;101249.34;1729704;82;25877;-56
2021/06/03 09:54:55;;;;;;;6.42;2.17;;;;;;;33.64;19.45;101258.59;1693267;83;25840;-56
2021/06/03 09:57:34;;;;;;;3.47;2.47;;;;;;;33.64;19.45;101258.59;1716303;83;27359;-56
2021/06/03 10:00:19;;;;;;;2.65;2.00;;;;;;;33.64;19.76;101244.58;1692811;83;25863;-57
2021/06/03 10:02:46;;;;;;;2.45;2.25;;;;;;;33.98;20.46;101264.22;1706635;81;25861;-51
2021/06/03 10:05:23;;;;;;;5.17;2.30;;;;;;;34.14;20.59;101225.44;1712707;82;26286;-50
2021/06/03 10:08:01;;;;;;;4.75;2.67;;;;;;;34.14;20.59;101225.44;1689830;82;27139;-58
2021/06/03 10:10:32;;;;;;;4.37;2.70;;;;;;;34.40;19.69;101241.64;1707296;81;27410;-58
2021/06/03 10:13:12;;;;;;;4.00;2.20;;;;;;;34.51;19.36;101244.71;1710746;81;26496;-58
2021/06/03 10:15:42;;;;;;;4.45;2.33;;;;;;;34.67;19.46;101261.42;1711027;81;25837;-58
2021/06/03 10:18:15;;;;;;;3.90;2.35;;;;;;;34.75;19.33;101249.33;1716236;81;25777;-58
2021/06/03 10:20:54;;;;;;;4.85;2.22;;;;;;;34.75;19.33;101249.33;1702856;81;25760;-59
2021/06/03 10:23:28;;;;;;;6.50;2.33;;;;;;;34.67;18.71;101257.20;1721914;81;27319;-59
2021/06/03 10:26:01;;;;;;;3.72;2.72;;;;;;;34.12;18.68;101248.94;1729202;81;27161;-58
2021/06/03 10:28:28;;;;;;;4.47;2.10;;;;;;;33.38;18.68;101254.97;1729783;81;26472;-58
2021/06/03 10:31:06;;;;;;;4.28;2.35;;;;;;;32.87;18.83;101251.95;1733633;81;25815;-58
2021/06/03 10:33:32;;;;;;;6.40;2.65;;;;;;;32.30;19.03;101255.55;1712943;81;25806;-58
2021/06/03 10:36:01;;;;;;;;;;;;;;;31.76;19.52;101256.77;1702687;81;27967;-58
2021/06/03 10:38:28;;;;;;;3.87;2.85;;;;;;;31.39;19.55;101257.30;1673030;84;26064;-57
2021/06/03 10:41:02;;;;;;;4.42;2.50;;;;;;;31.03;20.25;101258.00;1678261;84;25684;-57
2021/06/03 10:43:33;;;;;;;6.40;2.72;;;;;;;30.70;20.76;101257.77;1682926;84;25744;-58
2021/06/03 10:46:00;;;;;;;6.83;2.50;;;;;;;30.49;20.67;101256.11;1685612;82;25654;-58
2021/06/03 10:48:26;;;;;;;4.03;2.50;;;;;;;30.44;20.70;101248.22;1691316;82;27956;-58
2021/06/03 10:50:56;;;;;;;3.33;2.30;;;;;;;30.59;20.88;101253.74;1698278;82;25857;-55
2021/06/03 10:53:28;;;;;;;3.45;2.20;;;;;;;31.03;20.81;101247.61;1688827;83;25735;-55
2021/06/03 10:56:16;;;;;;;3.55;2.65;;;;;;;31.06;20.54;101250.95;1697486;81;25941;-54
2021/06/03 10:58:47;;;;;;;4.35;2.37;;;;;;;30.79;20.57;101253.80;1695039;83;25766;-56
2021/06/03 11:01:17;;;;;;;4.90;2.80;;;;;;;30.35;20.88;101247.33;1697570;83;28745;-57
2021/06/03 11:03:47;;;;;;;3.65;2.70;;;;;;;30.03;21.05;101244.42;1693440;83;25779;-57
2021/06/03 11:06:18;;;;;;;10.30;2.98;;;;;;;29.76;21.22;101248.00;1682247;83;25720;-55
2021/06/03 11:08:57;;;;;;;5.22;2.62;;;;;;;29.56;21.46;101241.47;1693948;82;25893;-58
2021/06/03 11:11:33;;;;;;;5.50;2.65;;;;;;;29.42;21.87;101237.64;1695343;83;25950;-57
2021/06/03 11:14:20;;;;;;;5.40;2.90;;;;;;;29.65;22.25;101236.77;1690629;82;27409;-58
2021/06/03 11:16:54;;;;;;;3.33;2.42;;;;;;;30.12;22.16;101240.52;1693571;83;25704;-57
2021/06/03 11:19:29;;;;;;;2.65;2.10;;;;;;;30.59;21.36;101236.99;1689371;82;25837;-59
2021/06/03 11:22:03;;;;;;;5.40;2.72;;;;;;;30.80;21.18;101234.45;1682303;83;25784;-58
2021/06/03 11:24:39;;;;;;;3.40;2.75;;;;;;;31.18;20.53;101231.98;1714947;81;25650;-58
2021/06/03 11:27:16;;;;;;;6.10;2.67;;;;;;;31.34;20.98;101236.84;1706866;81;27326;-58
2021/06/03 11:29:54;;;;;;;2.80;2.50;;;;;;;31.58;20.85;101241.76;1702105;81;25709;-58
2021/06/03 11:32:26;;;;;;;5.95;2.60;;;;;;;31.90;20.73;101227.69;1686616;82;25625;-57
2021/06/03 11:34:56;;;;;;;7.67;2.27;;;;;;;32.15;20.23;101220.92;1719761;81;25844;-59
2021/06/03 11:37:43;;;;;;;4.30;2.70;;;;;;;32.20;20.10;101228.80;1696770;81;25753;-58
2021/06/03 11:40:16;;;;;;;5.95;2.50;;;;;;;32.37;20.02;101223.98;1707521;83;27331;-58
2021/06/03 11:42:57;;;;;;;4.47;2.60;;;;;;;32.60;19.90;101234.80;1718102;81;25849;-58
2021/06/03 11:45:32;;;;;;;4.28;2.80;;;;;;;32.85;19.90;101224.38;1707313;82;25679;-59
2021/06/03 11:48:05;;;;;;;2.50;2.30;;;;;;;33.18;19.30;101227.72;1714659;82;25590;-59
2021/06/03 11:50:35;;;;;;;3.62;2.70;;;;;;;33.14;19.09;101219.39;1707172;82;25802;-58
2021/06/03 11:53:07;;;;;;;6.58;2.55;;;;;;;33.28;19.32;101220.41;1713725;82;27384;-59
2021/06/03 11:55:59;;;;;;;5.65;2.37;;;;;;;33.54;19.47;101218.27;1712436;82;25903;-58
2021/06/03 11:58:43;;;;;;;5.62;2.65;;;;;;;33.60;19.20;101219.30;1710427;83;25649;-58
2021/06/03 12:01:26;;;;;;;5.35;2.60;;;;;;;33.60;19.20;101219.30;1713237;82;25863;-59
2021/06/03 12:04:16;;;;;;;4.50;2.30;;;;;;;33.29;19.09;101216.37;1713066;83;25845;-59
2021/06/03 12:06:49;;;;;;;5.10;2.90;;;;;;;32.87;18.81;101215.54;1706273;83;27438;-58
2021/06/03 12:09:28;;;;;;;4.83;2.52;;;;;;;32.21;19.20;101211.38;1718172;82;26132;-58
2021/06/03 12:12:01;;;;;;;4.30;2.42;;;;;;;31.81;19.51;101210.89;1704230;83;25770;-59
2021/06/03 12:14:42;;;;;;;4.92;2.60;;;;;;;31.53;19.79;101210.13;1701412;83;25740;-58
2021/06/03 12:17:11;;;;;;;5.22;2.33;;;;;;;31.15;20.07;101211.27;1705586;83;25780;-58
2021/06/03 12:19:51;;;;;;;3.20;2.50;;;;;;;30.85;20.67;101206.03;1711299;82;27935;-58
2021/06/03 12:22:17;;;;;;;3.83;2.67;;;;;;;31.08;20.86;101206.60;1709924;82;25889;-58
2021/06/03 12:24:56;;;;;;;6.55;2.45;;;;;;;30.99;20.45;101202.20;1711126;83;25772;-58
2021/06/03 12:27:33;;;;;;;4.55;2.62;;;;;;;30.97;20.68;101203.22;1715608;82;25777;-57
2021/06/03 12:30:28;;;;;;;4.45;2.42;;;;;;;31.07;20.26;101195.27;1709442;83;26547;-57
2021/06/03 12:33:13;;;;;;;4.50;2.35;;;;;;;31.13;20.26;101195.55;1712703;82;27931;-58
2021/06/03 12:35:47;;;;;;;5.15;2.70;;;;;;;31.07;19.94;101194.45;1701261;83;25760;-58
2021/06/03 12:38:34;;;;;;;3.17;2.60;;;;;;;31.11;20.25;101186.81;1715939;82;25870;-58
2021/06/03 12:41:06;;;;;;;3.75;2.75;;;;;;;31.31;19.77;101184.60;1714342;82;25943;-58
2021/06/03 12:43:43;;;;;;;3.00;2.70;;;;;;;31.38;19.80;101179.66;1711019;83;25670;-59
2021/06/03 12:46:12;;;;;;;2.80;2.40;;;;;;;31.42;19.92;101179.58;1704566;82;27989;-58
2021/06/03 12:48:38;;;;;;;2.72;2.30;;;;;;;31.67;19.81;101174.88;1706690;83;25666;-58
2021/06/03 12:51:14;;;;;;;3.42;2.60;;;;;;;31.86;19.74;101174.63;1713394;83;25977;-59
2021/06/03 12:53:48;;;;;;;5.85;3.20;;;;;;;32.06;19.66;101170.37;1715816;82;25711;-58
2021/06/03 12:56:22;;;;;;;5.80;2.37;;;;;;;32.23;19.67;101170.38;1712780;82;25838;-59
2021/06/03 12:58:46;;;;;;;5.42;3.35;;;;;;;32.37;19.42;101182.63;1713136;82;27358;-58
2021/06/03 13:01:15;;;;;;;5.35;2.67;;;;;;;32.33;19.48;101173.52;1688568;83;26956;-59
2021/06/03 13:03:41;;;;;;;4.17;2.55;;;;;;;31.92;19.39;101176.29;1697936;83;25773;-58
2021/06/03 13:06:10;;;;;;;6.33;2.80;;;;;;;31.36;19.50;101182.08;1713515;82;25816;-59
2021/06/03 13:09:00;;;;;;;6.62;4.10;;;;;;;30.94;20.03;101184.55;1718760;81;26097;-56
2021/06/03 13:11:33;;;;;;;11.00;3.75;;;;;;;30.51;20.13;101181.91;1700379;82;27950;-58
2021/06/03 13:14:24;;;;;;;6.25;3.40;;;;;;;30.05;20.42;101179.23;1685885;83;25725;-57
2021/06/03 13:17:07;;;;;;;5.28;3.47;;;;;;;29.69;20.91;101180.36;1687287;83;25552;-61
2021/06/03 13:19:35;;;;;;;5.10;3.70;;;;;;;29.34;21.24;101178.25;1685044;84;25898;-61
2021/06/03 13:22:03;;;;;;;4.30;2.93;;;;;;;29.04;21.63;101170.78;1690345;84;25806;-60
2021/06/03 13:24:38;;;;;;;5.47;2.43;;;;;;;28.84;22.10;101172.61;1683692;84;27327;-60
2021/06/03 13:27:19;;;;;;;3.95;2.75;;;;;;;28.77;22.38;101175.47;1693357;83;27106;-60
2021/06/03 13:29:51;;;;;;;12.55;3.30;;;;;;;28.77;22.12;101166.51;1687323;84;25905;-60
2021/06/03 13:32:25;;;;;;;9.70;2.85;;;;;;;28.77;21.79;101160.94;1688874;84;26327;-63
2021/06/03 13:35:03;;;;;;;9.98;3.10;;;;;;;28.81;21.92;101163.11;1686697;84;25920;-62
2021/06/03 13:37:33;;;;;;;4.62;3.12;;;;;;;28.69;21.65;101164.41;1686792;83;27525;-60
2021/06/03 13:40:05;;;;;;;4.25;2.87;;;;;;;28.57;21.68;101158.56;1680104;84;25746;-59
2021/06/03 13:42:39;;;;;;;5.65;3.02;;;;;;;28.46;21.72;101164.21;1685992;84;25699;-63
2021/06/03 13:45:12;;;;;;;5.05;3.02;;;;;;;28.34;22.23;101158.55;1693614;84;27857;-61
2021/06/03 13:48:04;;;;;;;5.47;3.15;;;;;;;28.27;22.63;101158.01;1693010;84;25909;-62
2021/06/03 13:50:50;;;;;;;4.20;2.30;;;;;;;28.45;22.72;101159.84;1683781;84;27390;-66
2021/06/03 13:53:36;;;;;;;4.83;2.95;;;;;;;28.76;22.83;101151.61;1679168;84;25743;-66
2021/06/03 13:56:26;;;;;;;4.20;2.90;;;;;;;29.21;22.89;101151.53;1690963;84;25806;-73
2021/06/03 13:59:03;;;;;;;3.72;2.35;;;;;;;29.49;22.58;101149.57;1719269;80;25661;-66
2021/06/03 14:01:42;;;;;;;6.67;2.87;;;;;;;29.66;22.33;101149.95;1696858;83;25882;-62
2021/06/03 14:04:13;;;;;;;;;;;;;;;29.69;22.28;101156.66;1674367;84;27330;-62
2021/06/03 14:06:48;;;;;;;5.25;2.90;;;;;;;29.59;22.03;101159.20;1702582;83;25763;-71
2021/06/03 14:09:28;;;;;;;4.72;2.45;;;;;;;29.41;22.07;101154.47;1686668;84;25845;-72
2021/06/03 14:12:08;;;;;;;6.65;3.00;;;;;;;29.25;21.90;101153.66;1706709;83;25661;-72
2021/06/03 14:14:35;;;;;;;5.05;2.75;;;;;;;29.00;22.01;101156.73;1706440;81;26048;-63
2021/06/03 14:17:19;;;;;;;4.53;2.80;;;;;;;28.80;22.16;101156.55;1709090;82;27314;-63
2021/06/03 14:19:49;;;;;;;4.25;2.50;;;;;;;28.49;22.22;101164.78;1707444;83;25733;-64
2021/06/03 14:22:33;;;;;;;3.40;2.70;;;;;;;28.27;22.55;101161.41;1705689;83;25722;-65
2021/06/03 14:25:13;;;;;;;4.58;2.40;;;;;;;28.26;22.96;101154.25;1687046;81;25738;-64
2021/06/03 14:27:54;;;;;;;4.35;3.37;;;;;;;28.36;23.02;101154.75;1690486;83;25892;-61
2021/06/03 14:30:26;;;;;;;4.22;2.70;;;;;;;28.54;22.97;101149.62;1720160;82;27311;-61
2021/06/03 14:32:58;;;;;;;5.08;2.92;;;;;;;28.62;22.41;101140.84;1717552;83;25656;-63
2021/06/03 14:35:38;;;;;;;3.35;2.70;;;;;;;28.61;22.28;101140.64;1706104;83;26495;-61
2021/06/03 14:38:11;;;;;;;4.47;3.10;;;;;;;28.56;22.49;101138.91;1712812;83;26342;-60
2021/06/03 14:40:48;;;;;;;4.15;2.72;;;;;;;28.67;22.81;101145.95;1719457;83;25649;-63
2021/06/03 14:43:24;;;;;;;3.75;2.35;;;;;;;28.79;22.50;101141.05;1716774;83;28044;-61
2021/06/03 14:46:12;;;;;;;4.28;2.70;;;;;;;28.77;22.29;101134.50;1714117;83;25772;-61
2021/06/03 14:48:40;;;;;;;7.42;2.98;;;;;;;28.79;22.47;101137.69;1710137;82;25839;-63
2021/06/03 14:51:12;;;;;;;4.95;2.65;;;;;;;28.85;22.54;101136.61;1714395;82;25800;-65
2021/06/03 14:53:40;;;;;;;4.58;2.60;;;;;;;28.92;22.50;101135.75;1718160;82;25652;-61
2021/06/03 14:56:09;;;;;;;5.77;2.70;;;;;;;28.73;22.11;101134.38;1717076;83;27292;-67
2021/06/03 14:58:37;;;;;;;9.35;2.72;;;;;;;28.60;22.22;101146.62;1714703;82;25818;-63
2021/06/03 15:01:08;;;;;;;6.25;3.12;;;;;;;28.47;22.59;101142.94;1709890;82;25678;-64
2021/06/03 15:03:34;;;;;;;6.92;2.60;;;;;;;28.47;22.75;101138.77;1715715;83;25804;-62
2021/06/03 15:06:01;;;;;;;3.33;2.65;;;;;;;28.36;22.16;101141.45;1711959;82;25777;-64
2021/06/03 15:08:28;;;;;;;3.58;2.67;;;;;;;28.20;22.32;101138.61;1714416;82;27314;-64
2021/06/03 15:10:55;;;;;;;7.85;2.65;;;;;;;27.98;22.15;101139.98;1717501;82;26261;-65
2021/06/03 15:13:28;;;;;;;6.53;2.98;;;;;;;27.73;22.41;101133.35;1684576;84;25965;-63
2021/06/03 15:15:58;;;;;;;5.35;2.95;;;;;;;27.64;22.76;101129.47;1717717;83;25677;-61
2021/06/03 15:18:24;;;;;;;4.65;2.95;;;;;;;27.62;22.83;101134.61;1695470;82;26272;-62
2021/06/03 15:20:54;;;;;;;3.95;2.90;;;;;;;27.44;23.36;101133.34;1709563;82;27298;-61
2021/06/03 15:23:24;;;;;;;3.15;2.87;;;;;;;27.31;23.52;101135.20;1698215;82;25742;-61
2021/06/03 15:25:52;;;;;;;8.38;3.20;;;;;;;27.21;23.68;101136.00;1689925;83;26404;-61
2021/06/03 15:28:20;;;;;;;6.03;3.12;;;;;;;27.16;23.98;101133.05;1701915;82;26313;-63
2021/06/03 15:30:48;;;;;;;6.45;2.80;;;;;;;27.08;23.86;101136.25;1703467;81;26085;-64
2021/06/03 15:33:16;;;;;;;7.00;2.90;;;;;;;26.93;23.85;101147.39;1699960;81;27928;-65
2021/06/03 15:35:46;;;;;;;3.90;3.35;;;;;;;26.82;23.87;101140.48;1691461;81;25781;-62
2021/06/03 15:38:14;;;;;;;7.90;3.42;;;;;;;26.71;24.23;101148.03;1710607;81;25787;-66
2021/06/03 15:40:45;;;;;;;7.00;3.67;;;;;;;26.58;24.40;101145.45;1717615;81;26181;-63
2021/06/03 15:43:15;;;;;;;5.65;3.50;;;;;;;26.43;24.33;101141.32;1696095;81;25811;-64
2021/06/03 15:45:43;;;;;;;10.13;3.50;;;;;;;26.32;24.47;101136.97;1695108;82;28362;-63
2021/06/03 15:48:15;;;;;;;4.33;3.02;;;;;;;26.24;24.83;101135.59;1708929;81;25735;-63
2021/06/03 15:50:42;;;;;;;4.47;2.75;;;;;;;26.13;24.82;101136.77;1700423;83;25859;-63
2021/06/03 15:53:18;;;;;;;3.27;2.98;;;;;;;26.09;24.82;101134.79;1707591;82;25885;-61
2021/06/03 15:55:50;;;;;;;3.20;2.92;;;;;;;26.08;25.03;101134.61;1717938;83;26295;-62
2021/06/03 15:58:18;;;;;;;6.20;2.85;;;;;;;26.08;24.94;101129.06;1714443;82;28104;-63
2021/06/03 16:00:45;;;;;;;4.17;2.90;;;;;;;26.03;25.03;101133.61;1698492;82;25723;-61
2021/06/03 16:03:12;;;;;;;7.15;2.60;;;;;;;26.00;25.18;101124.70;1726934;82;26265;-62
2021/06/03 16:05:38;;;;;;;5.53;3.20;;;;;;;25.95;25.23;101122.89;1709928;83;26108;-59
2021/06/03 16:08:05;;;;;;;7.75;3.08;;;;;;;25.91;25.16;101122.86;1698143;82;25797;-60
2021/06/03 16:10:32;;;;;;;3.52;2.65;;;;;;;25.88;25.29;101121.69;1713933;82;27377;-63
2021/06/03 16:12:59;;;;;;;3.12;2.87;;;;;;;25.93;25.47;101123.86;1693456;82;26110;-64
2021/06/03 16:15:27;;;;;;;7.58;3.47;;;;;;;25.94;25.61;101119.91;1720314;81;25692;-59
2021/06/03 16:17:58;;;;;;;3.70;2.73;;;;;;;25.94;25.75;101126.23;1574789;80;10000240;-60
2021/06/03 16:20:23;;;;;;;4.12;2.52;;;;;;;25.93;25.60;101122.47;1612833;87;28074;-59
2021/06/03 16:22:50;;;;;;;5.83;2.77;;;;;;;25.91;25.82;101129.22;1551886;90;26498;-64
2021/06/03 16:25:17;;;;;;;6.30;2.92;;;;;;;25.86;25.74;101126.84;1567729;89;25778;-64
2021/06/03 16:27:47;;;;;;;5.37;3.20;;;;;;;25.79;25.74;101128.19;1553089;89;26200;-63
2021/06/03 16:30:19;;;;;;;4.75;3.20;;;;;;;25.77;25.95;101125.03;1618726;86;25705;-62
2021/06/03 16:32:49;;;;;;;4.83;3.40;;;;;;;25.75;26.01;101131.56;1565190;88;27359;-59
2021/06/03 16:35:16;;;;;;;4.70;4.17;;;;;;;25.78;26.05;101131.34;1602329;87;26433;-60
2021/06/03 16:37:42;;;;;;;4.92;3.08;;;;;;;25.75;26.05;101120.48;1597026;87;25770;-63
2021/06/03 16:40:11;;;;;;;3.65;2.60;;;;;;;25.77;26.21;101131.95;1589259;88;26591;-63
2021/06/03 16:42:38;;;;;;;4.55;2.87;;;;;;;25.73;26.01;101133.94;1586131;87;25733;-61
2021/06/03 16:45:09;;;;;;;5.15;2.90;;;;;;;25.59;25.81;101130.55;1566463;89;27527;-60
2021/06/03 16:47:35;;;;;;;3.80;2.83;;;;;;;25.49;25.89;101127.94;1625076;86;25727;-63
2021/06/03 16:50:03;;;;;;;4.30;2.62;;;;;;;25.40;25.92;101130.87;1621671;86;26208;-63
2021/06/03 16:52:30;;;;;;;5.28;2.85;;;;;;;25.30;25.99;101130.45;1616202;86;26408;-60
2021/06/03 16:54:56;;;;;;;4.80;3.00;;;;;;;25.13;25.99;101130.55;1570846;89;25754;-59
2021/06/03 16:57:23;;;;;;;4.90;3.05;;;;;;;24.96;26.18;101129.28;1583587;88;27436;-63
2021/06/03 16:59:50;;;;;;;7.30;5.30;;;;;;;24.88;26.52;101127.66;1568570;89;25941;-60
2021/06/03 17:02:17;;;;;;;4.25;3.33;;;;;;;24.79;26.80;101122.48;1572735;89;25759;-65
2021/06/03 17:04:44;;;;;;;4.03;3.22;;;;;;;24.71;26.66;101128.36;1575962;90;26573;-64
2021/06/03 17:07:11;;;;;;;3.45;3.08;;;;;;;24.62;26.68;101127.31;1579376;89;25923;-64
2021/06/03 17:09:38;;;;;;;4.35;2.50;;;;;;;24.47;26.78;101130.53;1573724;88;27345;-65
2021/06/03 17:12:05;;;;;;;4.60;2.90;;;;;;;24.33;26.85;101129.03;1576650;88;25743;-65
2021/06/03 17:14:32;;;;;;;5.22;2.92;;;;;;;24.17;26.98;101133.45;1581337;89;25975;-67
2021/06/03 17:16:58;;;;;;;7.58;2.85;;;;;;;24.04;27.13;101128.22;1575661;88;26245;-66
2021/06/03 17:19:26;;;;;;;5.83;2.87;;;;;;;23.97;27.49;101131.49;1587765;88;25798;-66